createdAt,value
2022-12-29T00:01:44.725Z,100.00
2022-12-29T00:04:15.788Z,100.00
2022-12-29T00:06:44.394Z,100.00
2022-12-29T00:09:13.948Z,100.00
2022-12-29T00:11:45.063Z,100.00
2022-12-29T00:14:32.666Z,100.00
2022-12-29T00:17:00.541Z,100.00
2022-12-29T00:19:50.332Z,100.00
2022-12-29T00:22:36.607Z,100.00
2022-12-29T00:25:25.636Z,100.00
2022-12-29T00:28:12.181Z,100.00
2022-12-29T00:31:03.005Z,100.00
2022-12-29T00:33:51.968Z,100.00
2022-12-29T00:36:42.125Z,100.00
2022-12-29T00:39:36.131Z,100.00
2022-12-29T00:42:28.289Z,100.00
2022-12-29T00:44:56.233Z,100.00
2022-12-29T00:47:27.671Z,100.00
2022-12-29T00:49:55.510Z,100.00
2022-12-29T00:52:23.522Z,100.00
2022-12-29T00:54:51.769Z,100.00
2022-12-29T00:57:19.925Z,100.00
2022-12-29T00:59:47.792Z,100.00
2022-12-29T01:02:17.072Z,100.00
2022-12-29T01:04:48.072Z,100.00
2022-12-29T01:07:17.252Z,100.00
2022-12-29T01:10:04.717Z,100.00
2022-12-29T01:12:46.272Z,100.00
2022-12-29T01:15:16.195Z,99.93
2022-12-29T01:17:44.555Z,99.97
2022-12-29T01:20:15.588Z,100.00
2022-12-29T01:22:45.005Z,99.74
2022-12-29T01:25:13.878Z,99.69
2022-12-29T01:27:42.005Z,99.47
2022-12-29T01:30:10.377Z,98.90
2022-12-29T01:32:38.650Z,99.20
2022-12-29T01:35:06.846Z,98.62
2022-12-29T01:37:36.208Z,98.55
2022-12-29T01:40:07.764Z,98.65
2022-12-29T01:42:35.705Z,97.66
2022-12-29T01:45:23.770Z,98.19
2022-12-29T01:47:58.524Z,98.61
2022-12-29T01:50:41.323Z,98.61
2022-12-29T01:53:18.536Z,99.08
2022-12-29T01:55:53.404Z,99.08
2022-12-29T01:58:25.551Z,99.11
2022-12-29T02:00:53.552Z,98.91
2022-12-29T02:03:24.468Z,98.88
2022-12-29T02:06:03.900Z,99.22
2022-12-29T02:08:32.247Z,98.50
2022-12-29T02:11:04.534Z,98.38
2022-12-29T02:13:35.614Z,97.78
2022-12-29T02:16:15.620Z,97.22
2022-12-29T02:19:00.341Z,97.28
2022-12-29T02:21:46.831Z,96.79
2022-12-29T02:24:46.521Z,96.97
2022-12-29T02:27:24.190Z,96.58
2022-12-29T02:30:33.750Z,97.14
2022-12-29T02:33:04.761Z,97.29
2022-12-29T02:35:50.440Z,97.54
2022-12-29T02:38:37.328Z,97.93
2022-12-29T02:41:06.019Z,97.82
2022-12-29T02:43:45.576Z,97.44
2022-12-29T02:46:35.491Z,96.28
2022-12-29T02:49:27.581Z,95.04
2022-12-29T02:52:04.916Z,95.67
2022-12-29T02:54:42.202Z,95.08
2022-12-29T02:57:21.715Z,94.15
2022-12-29T03:00:12.454Z,95.50
2022-12-29T03:03:08.218Z,94.59
2022-12-29T03:05:46.331Z,94.87
2022-12-29T03:08:57.447Z,94.65
2022-12-29T03:11:52.569Z,94.53
2022-12-29T03:15:30.229Z,94.55
2022-12-29T03:18:07.827Z,95.14
2022-12-29T03:20:48.380Z,94.34
2022-12-29T03:23:18.017Z,94.51
2022-12-29T03:25:52.311Z,94.81
2022-12-29T03:28:29.084Z,94.15
2022-12-29T03:31:01.234Z,93.66
2022-12-29T03:33:34.015Z,94.37
2022-12-29T03:36:08.146Z,94.03
2022-12-29T03:39:03.417Z,94.27
2022-12-29T03:41:35.902Z,94.62
2022-12-29T03:44:06.671Z,94.22
2022-12-29T03:46:35.302Z,94.97
2022-12-29T03:49:03.919Z,95.16
2022-12-29T03:51:31.875Z,95.11
2022-12-29T03:54:00.144Z,95.83
2022-12-29T03:56:28.410Z,96.46
2022-12-29T03:58:56.254Z,97.06
2022-12-29T04:01:25.536Z,97.13
2022-12-29T04:03:56.958Z,96.88
2022-12-29T04:06:25.015Z,97.52
2022-12-29T04:08:54.213Z,98.64
2022-12-29T04:11:25.180Z,99.32
2022-12-29T04:13:58.392Z,98.40
2022-12-29T04:16:26.654Z,98.76
2022-12-29T04:18:54.621Z,98.99
2022-12-29T04:21:24.097Z,99.27
2022-12-29T04:23:52.155Z,99.18
2022-12-29T04:26:20.166Z,99.29
2022-12-29T04:28:52.471Z,98.65
2022-12-29T04:31:22.911Z,98.21
2022-12-29T04:33:51.387Z,97.64
2022-12-29T04:36:19.261Z,96.77
2022-12-29T04:38:50.044Z,96.57
2022-12-29T04:41:18.085Z,96.82
2022-12-29T04:43:46.203Z,95.58
2022-12-29T04:46:14.899Z,96.38
2022-12-29T04:48:43.680Z,96.47
2022-12-29T04:51:11.743Z,96.46
2022-12-29T04:53:40.172Z,96.55
2022-12-29T04:56:10.433Z,96.20
2022-12-29T04:58:41.189Z,98.43
2022-12-29T05:01:09.457Z,95.97
2022-12-29T05:03:37.381Z,97.13
2022-12-29T05:06:05.900Z,96.54
2022-12-29T05:08:33.983Z,96.22
2022-12-29T05:11:02.011Z,98.15
2022-12-29T05:13:29.889Z,98.15
2022-12-29T05:15:58.467Z,96.27
2022-12-29T05:18:26.361Z,97.75
2022-12-29T05:20:55.061Z,97.19
2022-12-29T05:23:24.542Z,98.17
2022-12-29T05:25:52.857Z,97.54
2022-12-29T05:28:20.931Z,96.87
2022-12-29T05:30:51.440Z,98.63
2022-12-29T05:33:20.460Z,96.25
2022-12-29T05:35:51.444Z,96.72
2022-12-29T05:38:19.936Z,97.86
2022-12-29T05:40:47.764Z,96.74
2022-12-29T05:43:16.330Z,96.84
2022-12-29T05:45:45.252Z,96.97
2022-12-29T05:48:13.142Z,95.61
2022-12-29T05:50:41.083Z,95.27
2022-12-29T05:53:13.133Z,95.75
2022-12-29T05:55:46.616Z,94.56
2022-12-29T05:58:18.565Z,94.52
2022-12-29T06:00:46.810Z,94.30
2022-12-29T06:03:15.453Z,94.42
2022-12-29T06:05:47.488Z,94.29
2022-12-29T06:08:16.548Z,94.43
2022-12-29T06:10:47.118Z,94.67
2022-12-29T06:13:15.239Z,94.39
2022-12-29T06:15:44.429Z,94.29
2022-12-29T06:18:19.541Z,94.42
2022-12-29T06:20:49.054Z,93.44
2022-12-29T06:23:19.730Z,93.50
2022-12-29T06:25:50.638Z,93.50
2022-12-29T06:28:18.749Z,93.09
2022-12-29T06:30:47.170Z,93.00
2022-12-29T06:33:15.854Z,92.70
2022-12-29T06:35:47.128Z,93.31
2022-12-29T06:38:15.995Z,92.67
2022-12-29T06:40:46.332Z,92.12
2022-12-29T06:43:17.709Z,92.00
2022-12-29T06:45:45.797Z,92.18
2022-12-29T06:48:13.790Z,91.78
2022-12-29T06:50:42.382Z,91.90
2022-12-29T06:53:10.127Z,91.90
2022-12-29T06:55:38.509Z,92.02
2022-12-29T06:58:06.945Z,91.11
2022-12-29T07:00:34.799Z,91.58
2022-12-29T07:03:02.908Z,91.06
2022-12-29T07:05:33.917Z,90.73
2022-12-29T07:08:01.935Z,91.13
2022-12-29T07:10:29.812Z,90.81
2022-12-29T07:12:58.105Z,90.78
2022-12-29T07:15:26.024Z,91.28
2022-12-29T07:17:53.825Z,90.34
2022-12-29T07:20:26.759Z,90.48
2022-12-29T07:22:55.776Z,90.74
2022-12-29T07:25:26.944Z,90.48
2022-12-29T07:27:55.341Z,90.27
2022-12-29T07:30:23.262Z,90.12
2022-12-29T07:32:51.530Z,89.77
2022-12-29T07:35:19.374Z,89.46
2022-12-29T07:37:47.528Z,89.19
2022-12-29T07:40:15.850Z,89.80
2022-12-29T07:42:43.748Z,88.55
2022-12-29T07:45:16.402Z,88.87
2022-12-29T07:47:50.558Z,88.75
2022-12-29T07:50:18.877Z,88.35
2022-12-29T07:52:48.287Z,89.49
2022-12-29T07:55:18.518Z,88.09
2022-12-29T07:57:46.449Z,88.89
2022-12-29T08:00:15.367Z,88.69
2022-12-29T08:02:43.663Z,89.86
2022-12-29T08:05:11.672Z,87.46
2022-12-29T08:07:39.597Z,87.79
2022-12-29T08:10:08.331Z,87.65
2022-12-29T08:12:36.085Z,87.13
2022-12-29T08:15:04.509Z,86.66
2022-12-29T08:17:32.669Z,86.82
2022-12-29T08:20:00.545Z,85.60
2022-12-29T08:22:31.188Z,86.14
2022-12-29T08:24:59.455Z,86.76
2022-12-29T08:27:27.563Z,86.08
2022-12-29T08:29:55.507Z,85.94
2022-12-29T08:32:23.860Z,86.09
2022-12-29T08:34:52.043Z,85.53
2022-12-29T08:37:19.835Z,85.56
2022-12-29T08:39:47.983Z,86.20
2022-12-29T08:42:15.845Z,85.53
2022-12-29T08:44:43.851Z,85.13
2022-12-29T08:47:13.015Z,85.11
2022-12-29T08:49:43.983Z,84.34
2022-12-29T08:52:12.213Z,84.24
2022-12-29T08:54:40.465Z,84.64
2022-12-29T08:57:08.600Z,84.09
2022-12-29T08:59:37.236Z,83.94
2022-12-29T09:02:05.220Z,84.05
2022-12-29T09:04:33.401Z,84.57
2022-12-29T09:07:01.593Z,84.81
2022-12-29T09:09:29.308Z,84.57
2022-12-29T09:11:57.107Z,83.69
2022-12-29T09:14:25.410Z,83.69
2022-12-29T09:17:11.834Z,83.49
2022-12-29T09:19:40.139Z,82.68
2022-12-29T09:22:07.905Z,82.55
2022-12-29T09:24:35.622Z,83.24
2022-12-29T09:27:03.722Z,82.69
2022-12-29T09:29:31.431Z,83.28
2022-12-29T09:31:59.141Z,83.38
2022-12-29T09:34:27.498Z,83.08
2022-12-29T09:36:57.467Z,82.77
2022-12-29T09:39:25.328Z,82.78
2022-12-29T09:42:26.174Z,82.34
2022-12-29T09:45:29.560Z,83.00
2022-12-29T09:47:57.656Z,82.21
2022-12-29T09:50:31.477Z,81.38
2022-12-29T09:53:09.210Z,80.22
2022-12-29T09:56:00.112Z,79.82
2022-12-29T09:58:42.034Z,78.52
2022-12-29T10:01:30.294Z,78.47
2022-12-29T10:04:06.630Z,77.99
2022-12-29T10:07:27.971Z,79.83
2022-12-29T10:09:53.158Z,79.56
2022-12-29T10:12:47.035Z,79.11
2022-12-29T10:15:35.360Z,78.91
2022-12-29T10:18:21.471Z,80.67
2022-12-29T10:21:06.303Z,79.45
2022-12-29T10:23:40.599Z,78.64
2022-12-29T10:26:19.186Z,79.95
2022-12-29T10:28:54.098Z,79.50
2022-12-29T10:31:36.154Z,77.43
2022-12-29T10:34:16.499Z,78.95
2022-12-29T10:36:50.071Z,78.43
2022-12-29T10:39:49.579Z,78.20
2022-12-29T10:42:41.871Z,76.37
2022-12-29T10:45:16.870Z,77.63
2022-12-29T10:48:13.401Z,76.77
2022-12-29T10:50:44.294Z,78.60
2022-12-29T10:53:21.862Z,77.92
2022-12-29T10:55:51.734Z,79.80
2022-12-29T10:58:21.118Z,78.76
2022-12-29T11:00:54.989Z,79.71
2022-12-29T11:03:36.523Z,82.30
2022-12-29T11:06:12.646Z,78.01
2022-12-29T11:08:49.714Z,79.08
2022-12-29T11:11:27.925Z,80.55
2022-12-29T11:14:12.739Z,81.84
2022-12-29T11:16:42.932Z,82.54
2022-12-29T11:19:23.443Z,83.65
2022-12-29T11:21:51.839Z,85.46
2022-12-29T11:24:24.364Z,84.63
2022-12-29T11:26:58.919Z,85.52
2022-12-29T11:29:39.329Z,86.42
2022-12-29T11:32:29.542Z,86.58
2022-12-29T11:35:00.078Z,87.87
2022-12-29T11:37:40.953Z,88.76
2022-12-29T11:40:20.522Z,88.93
2022-12-29T11:42:57.219Z,88.96
2022-12-29T11:45:35.468Z,86.63
2022-12-29T11:48:10.937Z,86.00
2022-12-29T11:50:41.815Z,84.38
2022-12-29T11:53:37.246Z,85.42
2022-12-29T11:56:18.896Z,86.17
2022-12-29T11:58:51.153Z,87.76
2022-12-29T12:01:37.792Z,87.59
2022-12-29T12:04:21.399Z,87.48
2022-12-29T12:07:36.677Z,88.12
2022-12-29T12:10:08.044Z,88.98
2022-12-29T12:12:43.357Z,89.21
2022-12-29T12:15:23.484Z,89.95
2022-12-29T12:18:03.641Z,90.48
2022-12-29T12:20:45.945Z,90.93
2022-12-29T12:23:43.519Z,90.92
2022-12-29T12:26:20.072Z,90.59
2022-12-29T12:28:57.340Z,90.49
2022-12-29T12:32:07.171Z,90.69
2022-12-29T12:34:40.845Z,90.68
2022-12-29T12:37:34.906Z,90.16
2022-12-29T12:40:27.988Z,90.01
2022-12-29T12:43:11.815Z,90.04
2022-12-29T12:48:30.228Z,90.06
2022-12-29T12:51:16.176Z,90.17
2022-12-29T12:54:14.075Z,90.20
2022-12-29T12:57:14.546Z,90.29
2022-12-29T13:00:01.938Z,90.14
2022-12-29T13:02:40.294Z,91.08
2022-12-29T13:05:36.417Z,91.43
2022-12-29T13:08:19.231Z,90.26
2022-12-29T13:11:10.076Z,87.52
2022-12-29T13:13:48.887Z,91.08
2022-12-29T13:16:33.769Z,88.23
2022-12-29T13:19:12.883Z,90.68
2022-12-29T13:21:46.447Z,90.54
2022-12-29T13:27:15.028Z,88.20
2022-12-29T13:30:01.121Z,87.42
2022-12-29T13:32:43.982Z,89.74
2022-12-29T13:35:28.583Z,89.35
2022-12-29T13:38:04.922Z,87.69
2022-12-29T13:40:40.406Z,88.98
2022-12-29T13:43:09.739Z,89.45
2022-12-29T13:45:38.383Z,90.57
2022-12-29T13:48:18.893Z,91.18
2022-12-29T13:50:53.477Z,91.90
2022-12-29T13:53:35.714Z,92.42
2022-12-29T13:56:22.253Z,89.89
2022-12-29T13:58:59.064Z,91.55
2022-12-29T14:01:33.781Z,90.29
2022-12-29T14:04:09.767Z,90.79
2022-12-29T14:06:44.283Z,91.00
2022-12-29T14:09:37.275Z,89.06
2022-12-29T14:12:32.498Z,91.96
2022-12-29T14:15:12.615Z,88.32
2022-12-29T14:17:45.299Z,91.25
2022-12-29T14:20:24.362Z,90.78
2022-12-29T14:23:01.244Z,91.62
2022-12-29T14:26:01.517Z,91.77
2022-12-29T14:28:31.758Z,92.23
2022-12-29T14:31:02.632Z,92.57
2022-12-29T14:33:35.885Z,92.03
2022-12-29T14:36:26.763Z,91.25
2022-12-29T14:38:54.696Z,91.38
2022-12-29T14:41:31.876Z,90.94
2022-12-29T14:44:16.480Z,91.39
2022-12-29T14:46:47.217Z,92.13
2022-12-29T14:49:24.630Z,91.68
2022-12-29T14:51:55.303Z,91.12
2022-12-29T14:54:38.280Z,92.04
2022-12-29T14:57:09.620Z,90.89
2022-12-29T14:59:40.823Z,87.41
2022-12-29T15:02:20.979Z,89.27
2022-12-29T15:04:49.866Z,88.51
2022-12-29T15:07:21.066Z,90.02
2022-12-29T15:10:14.991Z,89.92
2022-12-29T15:12:53.165Z,91.75
2022-12-29T15:15:27.257Z,92.28
2022-12-29T15:17:55.653Z,92.21
2022-12-29T15:20:33.288Z,91.84
2022-12-29T15:23:12.455Z,91.38
2022-12-29T15:25:55.885Z,93.14
2022-12-29T15:28:25.197Z,91.25
2022-12-29T15:30:58.442Z,92.45
2022-12-29T15:33:29.261Z,91.74
2022-12-29T15:35:58.892Z,91.65
2022-12-29T15:38:37.133Z,92.18
2022-12-29T15:41:25.804Z,91.68
2022-12-29T15:44:32.234Z,92.57
2022-12-29T15:47:13.268Z,92.56
2022-12-29T15:49:44.416Z,91.12
2022-12-29T15:52:18.415Z,92.07
2022-12-29T15:54:49.331Z,93.44
2022-12-29T15:57:24.458Z,91.90
2022-12-29T15:59:53.434Z,93.24
2022-12-29T16:02:24.007Z,92.29
2022-12-29T16:05:16.677Z,91.42
2022-12-29T16:07:54.348Z,92.45
2022-12-29T16:10:34.812Z,91.80
2022-12-29T16:13:24.272Z,93.21
2022-12-29T16:16:09.338Z,93.85
2022-12-29T16:18:38.918Z,94.07
2022-12-29T16:21:19.556Z,94.41
2022-12-29T16:23:52.032Z,94.01
2022-12-29T16:26:21.903Z,91.75
2022-12-29T16:28:53.031Z,91.54
2022-12-29T16:32:01.945Z,92.28
2022-12-29T16:34:44.442Z,91.75
2022-12-29T16:37:32.454Z,93.51
2022-12-29T16:40:28.876Z,89.93
2022-12-29T16:43:02.655Z,90.70
2022-12-29T16:45:45.869Z,91.39
2022-12-29T16:48:16.939Z,90.38
2022-12-29T16:50:46.529Z,90.10
2022-12-29T16:53:29.740Z,91.16
2022-12-29T16:56:03.037Z,92.68
2022-12-29T16:58:33.000Z,91.78
2022-12-29T17:01:04.071Z,89.62
2022-12-29T17:03:46.041Z,89.33
2022-12-29T17:06:22.981Z,88.58
2022-12-29T17:08:52.537Z,89.75
2022-12-29T17:11:43.552Z,88.46
2022-12-29T17:14:34.197Z,88.22
2022-12-29T17:17:02.457Z,90.01
2022-12-29T17:19:39.061Z,88.28
2022-12-29T17:22:23.071Z,86.64
2022-12-29T17:24:51.531Z,90.06
2022-12-29T17:27:26.063Z,90.78
2022-12-29T17:29:58.775Z,91.05
2022-12-29T17:32:26.829Z,88.89
2022-12-29T17:34:55.234Z,88.31
2022-12-29T17:37:29.378Z,90.81
2022-12-29T17:39:57.624Z,87.52
2022-12-29T17:42:25.927Z,87.96
2022-12-29T17:44:53.983Z,88.11
2022-12-29T17:47:22.268Z,88.03
2022-12-29T17:49:50.245Z,86.56
2022-12-29T17:52:18.383Z,88.01
2022-12-29T17:54:50.471Z,88.86
2022-12-29T17:57:20.109Z,89.62
2022-12-29T17:59:48.449Z,87.72
2022-12-29T18:02:32.966Z,88.02
2022-12-29T18:05:01.434Z,88.61
2022-12-29T18:07:36.008Z,89.08
2022-12-29T18:10:04.830Z,91.29
2022-12-29T18:12:41.983Z,92.42
2022-12-29T18:15:21.230Z,91.25
2022-12-29T18:17:50.073Z,89.81
2022-12-29T18:20:18.315Z,90.09
2022-12-29T18:22:46.051Z,91.18
2022-12-29T18:25:52.567Z,89.14
2022-12-29T18:28:21.123Z,91.16
2022-12-29T18:30:49.151Z,93.08
2022-12-29T18:33:23.392Z,91.96
2022-12-29T18:36:05.515Z,92.02
2022-12-29T18:38:33.338Z,91.12
2022-12-29T18:41:04.895Z,91.82
2022-12-29T18:43:32.800Z,90.74
2022-12-29T18:46:01.274Z,90.43
2022-12-29T18:48:29.600Z,87.51
2022-12-29T18:50:57.418Z,86.18
2022-12-29T18:53:26.069Z,88.74
2022-12-29T18:55:54.558Z,87.82
2022-12-29T18:58:22.466Z,89.94
2022-12-29T19:00:51.418Z,88.90
2022-12-29T19:03:19.665Z,88.67
2022-12-29T19:05:49.359Z,90.56
2022-12-29T19:08:17.451Z,92.53
2022-12-29T19:10:46.244Z,93.03
2022-12-29T19:13:19.777Z,89.12
2022-12-29T19:15:48.326Z,89.86
2022-12-29T19:21:12.917Z,91.35
2022-12-29T19:23:44.342Z,89.33
2022-12-29T19:26:34.859Z,88.23
2022-12-29T19:29:03.027Z,87.66
2022-12-29T19:31:31.298Z,87.88
2022-12-29T19:33:59.059Z,87.72
2022-12-29T19:36:26.999Z,88.23
2022-12-29T19:38:56.202Z,88.24
2022-12-29T19:41:24.121Z,87.07
2022-12-29T19:43:52.000Z,87.86
2022-12-29T19:46:20.892Z,87.35
2022-12-29T19:48:48.746Z,86.81
2022-12-29T19:51:17.522Z,88.75
2022-12-29T19:53:46.647Z,90.09
2022-12-29T19:56:15.630Z,90.26
2022-12-29T19:58:47.192Z,91.96
2022-12-29T20:01:23.161Z,90.99
2022-12-29T20:03:52.515Z,90.22
2022-12-29T20:06:20.603Z,89.40
2022-12-29T20:08:51.751Z,90.53
2022-12-29T20:11:20.282Z,89.41
2022-12-29T20:13:48.767Z,89.35
2022-12-29T20:16:18.986Z,89.90
2022-12-29T20:18:48.452Z,91.14
2022-12-29T20:21:21.857Z,88.33
2022-12-29T20:23:53.118Z,88.89
2022-12-29T20:26:29.473Z,88.64
2022-12-29T20:28:58.951Z,89.21
2022-12-29T20:31:31.719Z,89.05
2022-12-29T20:34:00.170Z,88.23
2022-12-29T20:36:31.544Z,88.79
2022-12-29T20:39:02.036Z,90.41
2022-12-29T20:41:31.476Z,90.76
2022-12-29T20:43:59.748Z,89.57
2022-12-29T20:46:34.060Z,89.96
2022-12-29T20:49:11.469Z,89.55
2022-12-29T20:52:05.226Z,90.97
2022-12-29T20:54:29.934Z,90.25
2022-12-29T20:57:00.265Z,90.39
2022-12-29T20:59:29.166Z,88.77
2022-12-29T21:01:58.630Z,88.13
2022-12-29T21:04:27.031Z,87.04
2022-12-29T21:06:55.760Z,88.50
2022-12-29T21:09:24.107Z,91.43
2022-12-29T21:11:52.228Z,90.03
2022-12-29T21:14:20.513Z,88.08
2022-12-29T21:16:50.770Z,91.42
2022-12-29T21:19:18.684Z,89.15
2022-12-29T21:21:46.837Z,89.23
2022-12-29T21:24:14.662Z,88.49
2022-12-29T21:26:43.276Z,88.01
2022-12-29T21:29:11.633Z,87.37
2022-12-29T21:31:39.485Z,87.48
2022-12-29T21:34:07.618Z,86.88
2022-12-29T21:36:36.298Z,88.51
2022-12-29T21:39:04.898Z,86.76
2022-12-29T21:41:33.708Z,87.20
2022-12-29T21:44:20.739Z,89.38
2022-12-29T21:46:48.483Z,90.50
2022-12-29T21:49:16.770Z,89.70
2022-12-29T21:51:50.661Z,90.20
2022-12-29T21:54:43.744Z,89.89
2022-12-29T21:57:38.661Z,88.52
2022-12-29T22:00:28.136Z,88.65
2022-12-29T22:03:23.064Z,88.42
2022-12-29T22:06:11.312Z,88.24
2022-12-29T22:08:59.254Z,88.89
2022-12-29T22:11:45.839Z,88.10
2022-12-29T22:14:13.915Z,87.16
2022-12-29T22:16:41.795Z,87.12
2022-12-29T22:19:12.357Z,86.31
2022-12-29T22:21:40.618Z,86.88
2022-12-29T22:24:09.100Z,86.87
2022-12-29T22:26:36.938Z,88.65
2022-12-29T22:29:05.049Z,87.63
2022-12-29T22:31:33.471Z,88.18
2022-12-29T22:34:03.581Z,86.33
2022-12-29T22:36:32.643Z,89.35
2022-12-29T22:39:01.420Z,87.21
2022-12-29T22:41:29.337Z,85.38
2022-12-29T22:43:57.534Z,85.31
2022-12-29T22:46:25.492Z,87.55
2022-12-29T22:48:53.506Z,89.09
2022-12-29T22:51:21.553Z,86.89
2022-12-29T22:53:50.264Z,88.15
2022-12-29T22:56:18.610Z,88.37
2022-12-29T22:58:48.758Z,89.93
2022-12-29T23:01:22.331Z,92.40
2022-12-29T23:04:01.071Z,91.23
2022-12-29T23:06:41.714Z,90.11
2022-12-29T23:09:18.922Z,89.22
2022-12-29T23:11:50.135Z,90.11
2022-12-29T23:14:18.315Z,91.62
2022-12-29T23:16:46.673Z,89.39
2022-12-29T23:19:14.589Z,89.39
2022-12-29T23:21:42.672Z,91.55
2022-12-29T23:24:14.555Z,91.70
2022-12-29T23:26:45.626Z,93.71
2022-12-29T23:29:16.040Z,90.05
2022-12-29T23:31:44.949Z,88.54
2022-12-29T23:34:17.487Z,89.02
2022-12-29T23:36:45.582Z,91.08
2022-12-29T23:39:23.611Z,92.87
2022-12-29T23:41:52.823Z,94.11
2022-12-29T23:44:20.643Z,94.64
2022-12-29T23:46:48.733Z,94.16
2022-12-29T23:49:17.087Z,90.70
2022-12-29T23:51:44.988Z,92.31
2022-12-29T23:54:12.849Z,93.13
2022-12-29T23:56:41.066Z,92.46
2022-12-29T23:59:08.921Z,94.21
